createdAt,value
2023-02-14T00:01:38.445Z,9.58
2023-02-14T00:06:41.755Z,8.38
2023-02-14T00:11:45.282Z,6.40
2023-02-14T00:16:48.012Z,5.90
2023-02-14T00:21:51.854Z,7.39
2023-02-14T00:26:55.683Z,8.18
2023-02-14T00:32:01.481Z,8.55
2023-02-14T00:37:05.516Z,8.94
2023-02-14T00:42:08.067Z,9.18
2023-02-14T00:47:10.638Z,8.04
2023-02-14T00:52:14.195Z,6.11
2023-02-14T00:57:20.431Z,5.64
2023-02-14T01:02:23.003Z,6.92
2023-02-14T01:07:25.763Z,7.85
2023-02-14T01:12:28.444Z,8.51
2023-02-14T01:17:31.176Z,8.87
2023-02-14T01:22:37.653Z,9.17
2023-02-14T01:27:40.597Z,8.53
2023-02-14T01:32:43.937Z,6.31
2023-02-14T01:37:46.504Z,5.74
2023-02-14T01:42:49.106Z,6.91
2023-02-14T01:47:54.590Z,7.45
2023-02-14T01:53:07.726Z,8.22
2023-02-14T01:58:23.026Z,8.57
2023-02-14T02:03:49.106Z,8.87
2023-02-14T02:09:02.922Z,9.10
2023-02-14T02:14:16.022Z,8.50
2023-02-14T02:19:21.635Z,6.32
2023-02-14T02:24:36.862Z,5.65
2023-02-14T02:30:11.442Z,6.47
2023-02-14T02:35:19.974Z,7.33
2023-02-14T02:40:44.988Z,7.71
2023-02-14T02:46:14.594Z,7.97
2023-02-14T02:51:45.525Z,8.13
2023-02-14T02:56:56.850Z,8.32
2023-02-14T03:02:20.964Z,8.38
2023-02-14T03:07:45.245Z,8.56
2023-02-14T03:13:03.754Z,8.84
2023-02-14T03:18:51.118Z,9.05
2023-02-14T03:23:56.391Z,7.91
2023-02-14T03:29:09.357Z,6.19
2023-02-14T03:34:32.121Z,5.72
2023-02-14T03:40:06.789Z,6.58
2023-02-14T03:45:13.713Z,7.06
2023-02-14T03:50:19.857Z,7.38
2023-02-14T03:55:37.497Z,7.69
2023-02-14T04:00:42.131Z,7.96
2023-02-14T04:05:52.102Z,8.13
2023-02-14T04:10:58.104Z,8.21
2023-02-14T04:16:01.040Z,8.31
2023-02-14T04:21:04.546Z,8.37
2023-02-14T04:26:07.445Z,8.49
2023-02-14T04:31:12.396Z,8.55
2023-02-14T04:36:15.059Z,8.62
2023-02-14T04:41:17.660Z,8.68
2023-02-14T04:46:20.293Z,8.74
2023-02-14T04:51:22.915Z,8.83
2023-02-14T04:56:27.048Z,8.86
2023-02-14T05:01:29.623Z,8.97
2023-02-14T05:06:32.931Z,9.09
2023-02-14T05:11:35.515Z,9.06
2023-02-14T05:16:38.731Z,9.02
2023-02-14T05:21:41.361Z,9.08
2023-02-14T05:26:43.942Z,9.19
2023-02-14T05:31:46.627Z,9.23
2023-02-14T05:36:49.291Z,9.23
2023-02-14T05:41:51.867Z,9.13
2023-02-14T05:46:55.094Z,8.98
2023-02-14T05:51:57.642Z,8.93
2023-02-14T05:57:00.187Z,9.07
2023-02-14T06:02:02.888Z,9.20
2023-02-14T06:07:06.025Z,9.29
2023-02-14T06:12:08.628Z,9.32
2023-02-14T06:17:11.642Z,9.27
2023-02-14T06:22:14.374Z,9.22
2023-02-14T06:27:17.229Z,9.36
2023-02-14T06:32:19.983Z,9.53
2023-02-14T06:37:22.795Z,9.66
2023-02-14T06:42:25.412Z,9.68
2023-02-14T06:47:28.584Z,9.68
2023-02-14T06:52:32.618Z,9.77
2023-02-14T06:57:35.212Z,9.74
2023-02-14T07:02:37.817Z,9.74
2023-02-14T07:07:40.592Z,9.67
2023-02-14T07:12:43.306Z,9.69
2023-02-14T07:17:45.936Z,9.67
2023-02-14T07:22:48.612Z,9.66
2023-02-14T07:27:51.199Z,9.68
2023-02-14T07:32:53.889Z,9.67
2023-02-14T07:37:56.457Z,9.79
2023-02-14T07:43:00.702Z,10.03
2023-02-14T07:48:04.211Z,10.06
2023-02-14T07:53:08.482Z,10.16
2023-02-14T07:58:11.088Z,10.00
2023-02-14T08:03:14.127Z,8.28
2023-02-14T08:08:16.727Z,7.55
2023-02-14T08:13:21.757Z,8.49
2023-02-14T08:18:24.443Z,9.09
2023-02-14T08:23:27.251Z,9.45
2023-02-14T08:28:29.886Z,9.71
2023-02-14T08:33:32.759Z,9.80
2023-02-14T08:38:36.459Z,9.90
2023-02-14T08:43:39.097Z,10.04
2023-02-14T08:48:41.653Z,10.15
2023-02-14T08:53:45.137Z,10.16
2023-02-14T08:58:48.195Z,10.20
2023-02-14T09:03:50.898Z,10.30
2023-02-14T09:08:54.979Z,9.94
2023-02-14T09:13:57.932Z,8.19
2023-02-14T09:19:00.693Z,7.71
2023-02-14T09:24:03.666Z,8.93
2023-02-14T09:29:06.656Z,9.61
2023-02-14T09:34:09.426Z,10.01
2023-02-14T09:39:12.353Z,10.32
2023-02-14T09:44:23.571Z,10.65
2023-02-14T09:49:36.023Z,10.20
2023-02-14T09:54:42.475Z,8.60
2023-02-14T09:59:54.999Z,8.28
2023-02-14T10:05:13.312Z,9.50
2023-02-14T10:10:39.466Z,10.06
2023-02-14T10:15:50.967Z,10.48
2023-02-14T10:20:59.444Z,10.76
2023-02-14T10:26:04.499Z,9.52
2023-02-14T10:31:25.493Z,8.22
2023-02-14T10:36:31.534Z,8.18
2023-02-14T10:41:39.901Z,9.46
2023-02-14T10:47:19.825Z,10.20
2023-02-14T10:52:34.268Z,10.80
2023-02-14T10:57:48.132Z,10.72
2023-02-14T11:02:56.471Z,9.47
2023-02-14T11:07:59.855Z,8.72
2023-02-14T11:13:02.604Z,9.00
2023-02-14T11:18:22.889Z,10.26
2023-02-14T11:23:25.924Z,10.78
2023-02-14T11:28:28.563Z,10.60
2023-02-14T11:33:50.690Z,9.41
2023-02-14T11:39:22.244Z,9.74
2023-02-14T11:44:28.351Z,10.77
2023-02-14T11:49:34.677Z,10.69
2023-02-14T11:54:41.729Z,9.57
2023-02-14T11:59:52.586Z,10.47
2023-02-14T12:04:59.773Z,11.06
2023-02-14T12:10:15.684Z,9.79
2023-02-14T12:15:26.790Z,9.45
2023-02-14T12:21:01.566Z,10.60
2023-02-14T12:26:22.290Z,11.08
2023-02-14T12:31:26.876Z,10.54
2023-02-14T12:36:46.390Z,9.21
2023-02-14T12:42:21.543Z,8.32
2023-02-14T12:47:42.653Z,8.49
2023-02-14T12:52:45.190Z,9.97
2023-02-14T12:58:05.624Z,10.80
2023-02-14T13:03:08.530Z,10.60
2023-02-14T13:08:43.937Z,9.23
2023-02-14T13:14:20.587Z,8.73
2023-02-14T13:19:45.087Z,10.07
2023-02-14T13:24:51.982Z,11.08
2023-02-14T13:29:59.900Z,11.10
2023-02-14T13:35:15.231Z,9.83
2023-02-14T13:40:23.895Z,9.08
2023-02-14T13:45:29.499Z,9.09
2023-02-14T13:50:39.179Z,9.06
2023-02-14T13:55:47.420Z,9.27
2023-02-14T14:00:56.248Z,10.85
2023-02-14T14:06:05.327Z,11.74
2023-02-14T14:11:34.149Z,11.16
2023-02-14T14:16:38.222Z,10.08
2023-02-14T14:22:00.129Z,9.70
2023-02-14T14:27:04.276Z,9.95
2023-02-14T14:32:12.170Z,9.85
2023-02-14T14:37:20.706Z,9.38
2023-02-14T14:42:27.799Z,9.50
2023-02-14T14:47:46.768Z,10.72
2023-02-14T14:52:54.245Z,11.40
2023-02-14T14:58:00.042Z,11.25
2023-02-14T15:03:14.867Z,9.99
2023-02-14T15:08:22.803Z,9.26
2023-02-14T15:13:50.953Z,8.75
2023-02-14T15:18:59.103Z,8.30
2023-02-14T15:24:03.204Z,8.53
2023-02-14T15:29:07.363Z,9.91
2023-02-14T15:34:10.496Z,10.74
2023-02-14T15:39:19.497Z,11.19
2023-02-14T15:44:24.272Z,10.91
2023-02-14T15:49:46.492Z,9.50
2023-02-14T15:54:49.083Z,8.55
2023-02-14T15:59:52.173Z,8.48
2023-02-14T16:05:01.662Z,9.62
2023-02-14T16:10:20.309Z,10.33
2023-02-14T16:15:25.552Z,10.84
2023-02-14T16:20:30.255Z,10.56
2023-02-14T16:25:32.882Z,9.04
2023-02-14T16:30:36.805Z,8.09
2023-02-14T16:35:39.931Z,7.99
2023-02-14T16:40:45.075Z,9.11
2023-02-14T16:45:48.155Z,9.73
2023-02-14T16:50:51.001Z,10.03
2023-02-14T16:55:55.927Z,10.20
2023-02-14T17:00:59.225Z,10.32
2023-02-14T17:06:02.896Z,10.49
2023-02-14T17:11:05.987Z,10.05
2023-02-14T17:16:11.891Z,8.43
2023-02-14T17:21:16.624Z,7.32
2023-02-14T17:26:20.083Z,7.13
2023-02-14T17:31:22.761Z,8.25
2023-02-14T17:36:25.402Z,8.85
2023-02-14T17:41:29.280Z,9.17
2023-02-14T17:46:33.596Z,9.40
2023-02-14T17:51:36.269Z,9.51
2023-02-14T17:56:38.884Z,9.61
2023-02-14T18:01:41.740Z,9.75
2023-02-14T18:06:44.384Z,9.81
2023-02-14T18:11:47.468Z,9.07
2023-02-14T18:16:51.060Z,7.41
2023-02-14T18:21:53.729Z,6.96
2023-02-14T18:26:56.488Z,8.05
2023-02-14T18:31:59.142Z,8.75
2023-02-14T18:37:02.838Z,9.18
2023-02-14T18:42:05.889Z,9.49
2023-02-14T18:47:08.509Z,9.70
2023-02-14T18:52:11.351Z,9.88
2023-02-14T18:57:13.940Z,10.07
2023-02-14T19:02:16.694Z,10.18
2023-02-14T19:07:19.511Z,10.24
2023-02-14T19:12:24.260Z,10.26
2023-02-14T19:17:27.477Z,10.32
2023-02-14T19:22:30.046Z,10.38
2023-02-14T19:27:33.988Z,10.40
2023-02-14T19:32:36.558Z,9.89
2023-02-14T19:37:39.179Z,8.22
2023-02-14T19:42:41.775Z,7.67
2023-02-14T19:47:47.312Z,8.64
2023-02-14T19:52:50.864Z,9.24
2023-02-14T19:57:54.208Z,9.52
2023-02-14T20:03:00.779Z,9.78
2023-02-14T20:08:03.588Z,9.96
2023-02-14T20:13:06.196Z,10.03
2023-02-14T20:18:10.558Z,10.19
2023-02-14T20:23:14.139Z,10.27
2023-02-14T20:28:16.776Z,10.36
2023-02-14T20:33:19.644Z,10.54
2023-02-14T20:38:22.621Z,9.71
2023-02-14T20:43:25.241Z,8.11
2023-02-14T20:48:29.331Z,7.69
2023-02-14T20:53:33.198Z,8.61
2023-02-14T20:58:37.648Z,9.00
2023-02-14T21:03:43.340Z,9.13
2023-02-14T21:08:47.061Z,9.35
2023-02-14T21:13:53.893Z,9.58
2023-02-14T21:18:59.336Z,9.82
2023-02-14T21:24:11.791Z,9.94
2023-02-14T21:29:15.619Z,10.04
2023-02-14T21:34:18.277Z,10.12
2023-02-14T21:39:25.490Z,10.24
2023-02-14T21:44:44.159Z,9.78
2023-02-14T21:50:03.138Z,8.16
2023-02-14T21:55:06.200Z,7.64
2023-02-14T22:00:09.322Z,8.58
2023-02-14T22:05:12.325Z,9.13
2023-02-14T22:10:17.989Z,9.51
2023-02-14T22:15:20.708Z,9.89
2023-02-14T22:20:28.676Z,10.17
2023-02-14T22:25:31.512Z,9.76
2023-02-14T22:30:34.381Z,8.20
2023-02-14T22:35:36.939Z,7.19
2023-02-14T22:40:42.136Z,7.03
2023-02-14T22:45:44.839Z,8.14
2023-02-14T22:50:47.477Z,8.88
2023-02-14T22:55:50.118Z,9.44
2023-02-14T23:00:52.703Z,9.83
2023-02-14T23:05:59.237Z,10.06
2023-02-14T23:11:19.932Z,9.66
2023-02-14T23:16:39.754Z,7.95
2023-02-14T23:21:58.240Z,6.80
2023-02-14T23:27:00.997Z,6.76
2023-02-14T23:32:05.420Z,7.99
2023-02-14T23:37:09.948Z,8.80
2023-02-14T23:42:14.759Z,9.25
2023-02-14T23:47:20.618Z,9.60
2023-02-14T23:52:23.164Z,9.91
2023-02-14T23:57:25.816Z,10.14
